Terminal Aerodrome Forecast
Issued by NWS Jackson, KY

Home | Current Version | Previous Version | Text Only | Print | Product List | Glossary On
Versions: 1 2 3 4 5 6 7 8 9 10 11 12 13 14 15
000
FTUS43 KJKL 230500 RRA
TAFJKL
TAF
KJKL 230541Z 2306/2406 04003KT P6SM SCT100 OVC200
     FM230900 VRB03KT P6SM BKN100 OVC200
     FM231400 VRB03KT P6SM VCSH OVC040
     FM231600 01003KT 2SM -RA BR OVC015
     FM232000 01003KT 2SM -RA BR BKN006 OVC012
     FM240000 34003KT 1SM -RASN BR BKN005 OVC010=

USA.gov is the U.S. government's official web portal to all federal, state and local government web resources and services.